Time;durP1;ratioP1;P1;durP2;ratioP2;P2;SDS_P1;SDS_P2;PMS_P1;PMS_P2;Temp;Humidity;BMP_temperature;BMP_pressure;BME280_temperature;BME280_humidity;BME280_pressure;Samples;Min_cycle;Max_cycle;Signal;HPM_P1;HPM_P2
2024/03/08 00:00:18;;;;;;;15.38;11.07;;;;;;;;;;4975001;28;20026;-48
2024/03/08 00:02:44;;;;;;;17.77;12.50;;;;;;;;;;4993137;28;20109;-49
2024/03/08 00:05:11;;;;;;;18.95;12.35;;;;;;;;;;4986577;28;20430;-47
2024/03/08 00:07:38;;;;;;;18.13;11.93;;;;;;;;;;4980145;28;20030;-51
2024/03/08 00:10:05;;;;;;;21.98;12.82;;;;;;;;;;4975023;28;20039;-49
2024/03/08 00:12:31;;;;;;;18.52;11.35;;;;;;;;;;4975147;28;20027;-52
2024/03/08 00:14:57;;;;;;;18.73;12.30;;;;;;;;;;4975068;28;20058;-52
2024/03/08 00:17:23;;;;;;;19.70;11.90;;;;;;;;;;4992669;28;20034;-51
2024/03/08 00:19:50;;;;;;;20.73;13.05;;;;;;;;;;4991053;28;20037;-50
2024/03/08 00:22:16;;;;;;;19.63;13.95;;;;;;;;;;4975690;28;20034;-48
2024/03/08 00:24:43;;;;;;;19.90;14.38;;;;;;;;;;4974789;28;20026;-48
2024/03/08 00:27:11;;;;;;;24.70;16.55;;;;;;;;;;4983787;28;20030;-50
2024/03/08 00:29:40;;;;;;;23.38;15.15;;;;;;;;;;4993779;28;20117;-48
2024/03/08 00:32:07;;;;;;;23.58;16.15;;;;;;;;;;4979517;28;20031;-52
2024/03/08 00:34:39;;;;;;;27.85;17.75;;;;;;;;;;4982722;28;20057;-52
2024/03/08 00:37:05;;;;;;;25.90;18.23;;;;;;;;;;4993951;28;20049;-48
2024/03/08 00:39:31;;;;;;;29.03;18.33;;;;;;;;;;4991974;28;20132;-50
2024/03/08 00:41:58;;;;;;;31.02;20.50;;;;;;;;;;4987729;28;20064;-51
2024/03/08 00:44:24;;;;;;;34.38;22.33;;;;;;;;;;4976429;28;20073;-51
2024/03/08 00:46:51;;;;;;;29.45;18.90;;;;;;;;;;4991530;28;20165;-47
2024/03/08 00:49:17;;;;;;;32.03;21.67;;;;;;;;;;4978352;28;20504;-47
2024/03/08 00:51:43;;;;;;;27.13;18.70;;;;;;;;;;4974271;28;20512;-48
2024/03/08 00:54:09;;;;;;;29.13;20.05;;;;;;;;;;4975078;28;20829;-47
2024/03/08 00:56:39;;;;;;;29.77;21.17;;;;;;;;;;4993545;28;20038;-49
2024/03/08 00:59:05;;;;;;;28.33;19.83;;;;;;;;;;4982080;28;20200;-47
2024/03/08 01:01:31;;;;;;;36.67;23.00;;;;;;;;;;4981403;28;20023;-51
2024/03/08 01:03:58;;;;;;;28.73;21.47;;;;;;;;;;4974274;28;20496;-49
2024/03/08 01:06:24;;;;;;;35.25;21.80;;;;;;;;;;4974563;28;20023;-50
2024/03/08 01:08:52;;;;;;;33.27;22.43;;;;;;;;;;4973977;28;20031;-51
2024/03/08 01:11:19;;;;;;;30.02;22.55;;;;;;;;;;4974149;28;20274;-49
2024/03/08 01:13:47;;;;;;;31.80;21.73;;;;;;;;;;4973891;28;20374;-50
2024/03/08 01:16:13;;;;;;;31.77;21.58;;;;;;;;;;4979538;28;20400;-48
2024/03/08 01:18:39;;;;;;;29.50;21.20;;;;;;;;;;4989380;28;20035;-50
2024/03/08 01:21:06;;;;;;;27.98;19.73;;;;;;;;;;4973639;28;20034;-48
2024/03/08 01:23:32;;;;;;;28.97;21.30;;;;;;;;;;4973801;28;20034;-51
2024/03/08 01:25:58;;;;;;;32.00;20.80;;;;;;;;;;4972418;28;20457;-48
2024/03/08 01:28:25;;;;;;;28.70;20.35;;;;;;;;;;4973596;28;20041;-50
2024/03/08 01:30:55;;;;;;;31.88;21.98;;;;;;;;;;4986203;28;20035;-48
2024/03/08 01:33:22;;;;;;;30.35;20.65;;;;;;;;;;4973567;28;20070;-48
2024/03/08 01:35:48;;;;;;;;;;;;;;;;;;4974960;28;20552;-48
2024/03/08 01:38:15;;;;;;;28.10;20.90;;;;;;;;;;4973431;28;19921;-51
2024/03/08 01:40:41;;;;;;;26.23;18.98;;;;;;;;;;4973848;28;20031;-49
2024/03/08 01:43:21;;;;;;;27.13;19.17;;;;;;;;;;4981383;28;20023;-52
2024/03/08 01:45:47;;;;;;;27.73;19.08;;;;;;;;;;4989262;28;20033;-51
2024/03/08 01:48:15;;;;;;;28.27;19.17;;;;;;;;;;4982403;28;20109;-48
2024/03/08 01:50:41;;;;;;;;;;;;;;;;;;4991535;28;20035;-51
2024/03/08 01:53:10;;;;;;;26.90;17.50;;;;;;;;;;4975807;28;19956;-53
2024/03/08 01:55:36;;;;;;;22.48;16.85;;;;;;;;;;4973051;28;20367;-52
2024/03/08 01:58:05;;;;;;;23.13;16.67;;;;;;;;;;4990757;28;20146;-48
2024/03/08 02:00:32;;;;;;;24.88;15.23;;;;;;;;;;4988616;28;20022;-51
2024/03/08 02:02:59;;;;;;;20.80;15.93;;;;;;;;;;4974349;28;20122;-47
2024/03/08 02:05:26;;;;;;;23.35;13.63;;;;;;;;;;4976978;28;20544;-50
2024/03/08 02:07:52;;;;;;;23.73;15.18;;;;;;;;;;4980571;28;20027;-48
2024/03/08 02:10:18;;;;;;;22.77;16.17;;;;;;;;;;4979647;28;20094;-48
2024/03/08 02:12:44;;;;;;;18.13;12.90;;;;;;;;;;4992254;28;20050;-48
2024/03/08 02:15:11;;;;;;;20.83;14.98;;;;;;;;;;4985315;28;20023;-55
2024/03/08 02:17:37;;;;;;;20.58;13.57;;;;;;;;;;4974018;28;20027;-47
2024/03/08 02:20:04;;;;;;;20.58;13.88;;;;;;;;;;4989709;28;20121;-48
2024/03/08 02:22:34;;;;;;;18.20;13.70;;;;;;;;;;4989184;28;20378;-50
2024/03/08 02:25:01;;;;;;;19.27;12.93;;;;;;;;;;4973209;28;20393;-48
2024/03/08 02:27:29;;;;;;;16.77;12.18;;;;;;;;;;4984105;28;20023;-47
2024/03/08 02:29:56;;;;;;;20.85;13.43;;;;;;;;;;4971388;28;20034;-51
2024/03/08 02:32:23;;;;;;;16.23;10.60;;;;;;;;;;4979185;28;20022;-49
2024/03/08 02:34:49;;;;;;;16.45;12.35;;;;;;;;;;4990382;28;20026;-48
2024/03/08 02:37:16;;;;;;;18.75;13.38;;;;;;;;;;4972505;28;20077;-47
2024/03/08 02:39:42;;;;;;;17.52;12.15;;;;;;;;;;4972562;28;20412;-51
2024/03/08 02:42:08;;;;;;;17.33;11.55;;;;;;;;;;4972673;28;20046;-49
2024/03/08 02:44:34;;;;;;;18.00;11.50;;;;;;;;;;4972685;28;20015;-49
2024/03/08 02:47:01;;;;;;;17.65;12.23;;;;;;;;;;4984875;28;20030;-49
2024/03/08 02:49:27;;;;;;;15.32;12.55;;;;;;;;;;4981943;28;20397;-48
2024/03/08 02:51:54;;;;;;;16.95;11.57;;;;;;;;;;4972441;28;20125;-48
2024/03/08 02:54:20;;;;;;;14.10;11.20;;;;;;;;;;4986201;28;20512;-53
2024/03/08 02:56:47;;;;;;;19.75;12.80;;;;;;;;;;4972425;28;20039;-51
2024/03/08 02:59:13;;;;;;;19.05;13.27;;;;;;;;;;4973498;28;20112;-48
2024/03/08 03:01:41;;;;;;;19.40;11.50;;;;;;;;;;4978559;28;20125;-47
2024/03/08 03:04:07;;;;;;;18.40;12.40;;;;;;;;;;4990744;28;20117;-48
2024/03/08 03:06:33;;;;;;;17.42;11.30;;;;;;;;;;4971708;28;20038;-48
2024/03/08 03:09:00;;;;;;;21.17;12.90;;;;;;;;;;4972365;28;20098;-47
2024/03/08 03:11:26;;;;;;;21.08;11.77;;;;;;;;;;4973010;28;20062;-48
2024/03/08 03:13:53;;;;;;;17.77;11.75;;;;;;;;;;4993998;28;20034;-48
2024/03/08 03:16:20;;;;;;;17.38;10.93;;;;;;;;;;4986192;28;20070;-48
2024/03/08 03:18:46;;;;;;;19.45;12.82;;;;;;;;;;4985040;28;20090;-47
2024/03/08 03:21:13;;;;;;;18.80;12.80;;;;;;;;;;4976040;28;20127;-47
2024/03/08 03:23:42;;;;;;;15.88;12.20;;;;;;;;;;4977093;28;20033;-49
2024/03/08 03:26:12;;;;;;;15.75;11.43;;;;;;;;;;4981520;28;20031;-48
2024/03/08 03:28:41;;;;;;;14.70;10.60;;;;;;;;;;4981529;28;20481;-47
2024/03/08 03:31:08;;;;;;;17.23;12.20;;;;;;;;;;4983725;28;20038;-47
2024/03/08 03:33:34;;;;;;;15.80;11.27;;;;;;;;;;4979247;28;20062;-49
2024/03/08 03:36:00;;;;;;;15.38;9.98;;;;;;;;;;4974926;28;20039;-53
2024/03/08 03:38:28;;;;;;;18.23;13.05;;;;;;;;;;4974365;28;20066;-51
2024/03/08 03:40:57;;;;;;;18.60;13.07;;;;;;;;;;4979617;28;20027;-47
2024/03/08 03:43:26;;;;;;;16.13;11.68;;;;;;;;;;4981467;28;20023;-50
2024/03/08 03:45:54;;;;;;;14.95;10.43;;;;;;;;;;4980393;28;20384;-47
2024/03/08 03:48:20;;;;;;;14.40;11.10;;;;;;;;;;4993296;28;20100;-48
2024/03/08 03:50:46;;;;;;;16.95;11.20;;;;;;;;;;4983295;28;20058;-48
2024/03/08 03:53:13;;;;;;;16.63;10.57;;;;;;;;;;4982878;28;20073;-48
2024/03/08 03:55:39;;;;;;;16.60;10.98;;;;;;;;;;4987159;28;20027;-50
2024/03/08 03:58:05;;;;;;;18.57;11.40;;;;;;;;;;4975307;28;20417;-53
2024/03/08 04:00:32;;;;;;;17.15;10.77;;;;;;;;;;4976310;28;20464;-49
2024/03/08 04:03:00;;;;;;;13.85;10.70;;;;;;;;;;4975272;28;20034;-49
2024/03/08 04:05:26;;;;;;;17.33;11.18;;;;;;;;;;4975022;28;20150;-47
2024/03/08 04:07:53;;;;;;;16.37;10.00;;;;;;;;;;4975229;28;20139;-49
2024/03/08 04:10:19;;;;;;;15.73;10.60;;;;;;;;;;4976283;28;20030;-47
2024/03/08 04:12:46;;;;;;;14.38;10.43;;;;;;;;;;4989643;28;20042;-51
2024/03/08 04:15:12;;;;;;;16.02;10.75;;;;;;;;;;4990473;28;20038;-47
2024/03/08 04:17:38;;;;;;;13.35;10.32;;;;;;;;;;4980541;28;20085;-48
2024/03/08 04:20:09;;;;;;;15.35;9.63;;;;;;;;;;4992458;28;20033;-48
2024/03/08 04:22:43;;;;;;;13.55;9.52;;;;;;;;;;4981853;28;20031;-48
2024/03/08 04:25:09;;;;;;;16.35;10.50;;;;;;;;;;4993621;28;20444;-47
2024/03/08 04:27:36;;;;;;;14.90;9.57;;;;;;;;;;4978514;28;20433;-47
2024/03/08 04:30:03;;;;;;;15.73;10.80;;;;;;;;;;4974708;28;20039;-48
2024/03/08 04:32:32;;;;;;;12.48;9.88;;;;;;;;;;4993095;28;20030;-47
2024/03/08 04:34:58;;;;;;;14.48;10.43;;;;;;;;;;4994092;28;20034;-49
2024/03/08 04:37:25;;;;;;;11.73;8.75;;;;;;;;;;4992255;28;20030;-48
2024/03/08 04:39:51;;;;;;;15.80;9.27;;;;;;;;;;4974319;28;20053;-47
2024/03/08 04:42:17;;;;;;;13.40;9.38;;;;;;;;;;4979132;28;20030;-47
2024/03/08 04:44:44;;;;;;;17.13;10.98;;;;;;;;;;4985959;28;20029;-47
2024/03/08 04:47:11;;;;;;;17.17;9.90;;;;;;;;;;4978152;28;20109;-52
2024/03/08 04:49:37;;;;;;;13.77;9.50;;;;;;;;;;4978500;28;20503;-51
2024/03/08 04:52:04;;;;;;;12.67;9.57;;;;;;;;;;4974911;28;20161;-46
2024/03/08 04:54:33;;;;;;;14.05;9.45;;;;;;;;;;4992027;28;20381;-49
2024/03/08 04:56:59;;;;;;;18.10;10.85;;;;;;;;;;4993093;28;20034;-49
2024/03/08 04:59:27;;;;;;;13.40;9.98;;;;;;;;;;4993615;28;20045;-48
2024/03/08 05:01:53;;;;;;;14.30;10.63;;;;;;;;;;4992358;28;20080;-50
2024/03/08 05:04:19;;;;;;;17.70;10.27;;;;;;;;;;4993656;28;20042;-48
2024/03/08 05:06:46;;;;;;;15.27;9.90;;;;;;;;;;4993461;28;20106;-48
2024/03/08 05:09:15;;;;;;;13.17;9.60;;;;;;;;;;4993466;28;20065;-53
2024/03/08 05:11:43;;;;;;;15.55;11.05;;;;;;;;;;4992148;28;20092;-49
2024/03/08 05:14:10;;;;;;;14.40;10.10;;;;;;;;;;4993641;28;20070;-50
2024/03/08 05:16:36;;;;;;;13.75;10.02;;;;;;;;;;4992037;28;20065;-47
2024/03/08 05:19:03;;;;;;;15.37;10.53;;;;;;;;;;5016519;23;20126;-50
2024/03/08 05:21:29;;;;;;;15.02;9.48;;;;;;;;;;5011529;28;20571;-49
2024/03/08 05:23:55;;;;;;;17.45;11.07;;;;;;;;;;5012812;28;20068;-50
2024/03/08 05:26:22;;;;;;;16.33;11.05;;;;;;;;;;5011560;28;20033;-48
2024/03/08 05:28:49;;;;;;;19.55;10.73;;;;;;;;;;5011540;28;20084;-50
2024/03/08 05:31:22;;;;;;;15.73;9.82;;;;;;;;;;5012775;28;20041;-53
2024/03/08 05:33:48;;;;;;;18.98;11.13;;;;;;;;;;5013016;28;20034;-50
2024/03/08 05:36:16;;;;;;;16.90;10.80;;;;;;;;;;5012148;28;20030;-49
2024/03/08 05:38:43;;;;;;;15.07;10.18;;;;;;;;;;5012543;28;20044;-50
2024/03/08 05:41:11;;;;;;;16.13;10.70;;;;;;;;;;5012548;28;20061;-48
2024/03/08 05:43:38;;;;;;;14.45;10.43;;;;;;;;;;5012536;28;20476;-49
2024/03/08 05:46:04;;;;;;;19.67;10.52;;;;;;;;;;4994860;28;20052;-50
2024/03/08 05:48:34;;;;;;;15.70;11.17;;;;;;;;;;5011271;28;20038;-48
2024/03/08 05:51:01;;;;;;;16.65;11.50;;;;;;;;;;5012429;28;20277;-49
2024/03/08 05:53:31;;;;;;;14.63;10.90;;;;;;;;;;5012464;28;20034;-49
2024/03/08 05:55:58;;;;;;;24.55;12.98;;;;;;;;;;5012413;28;20527;-48
2024/03/08 05:58:24;;;;;;;;;;;;;;;;;;5012761;28;20033;-49
2024/03/08 06:00:50;;;;;;;20.13;13.18;;;;;;;;;;5011193;28;20016;-48
2024/03/08 06:03:18;;;;;;;20.25;13.68;;;;;;;;;;5011045;28;20080;-48
2024/03/08 06:05:44;;;;;;;;;;;;;;;;;;5012465;28;20037;-48
2024/03/08 06:08:11;;;;;;;17.75;12.75;;;;;;;;;;5012152;28;19916;-48
2024/03/08 06:10:38;;;;;;;20.48;14.23;;;;;;;;;;5010929;28;20084;-48
2024/03/08 06:13:04;;;;;;;20.38;14.98;;;;;;;;;;5012170;28;20036;-48
2024/03/08 06:15:30;;;;;;;24.17;15.03;;;;;;;;;;5011953;28;20060;-49
2024/03/08 06:17:56;;;;;;;22.67;14.93;;;;;;;;;;5012026;28;20276;-51
2024/03/08 06:20:26;;;;;;;20.42;13.85;;;;;;;;;;5011989;28;20034;-49
2024/03/08 06:22:52;;;;;;;20.95;13.95;;;;;;;;;;5012030;28;20037;-48
2024/03/08 06:25:18;;;;;;;23.52;13.48;;;;;;;;;;5012140;28;20377;-47
2024/03/08 06:27:46;;;;;;;20.80;12.93;;;;;;;;;;5012104;28;20484;-49
2024/03/08 06:30:13;;;;;;;18.02;13.77;;;;;;;;;;5010687;28;20101;-48
2024/03/08 06:32:40;;;;;;;16.52;12.55;;;;;;;;;;5010674;28;20026;-52
2024/03/08 06:35:07;;;;;;;18.17;13.15;;;;;;;;;;5010646;28;20060;-49
2024/03/08 06:37:33;;;;;;;22.13;13.88;;;;;;;;;;5011849;28;20068;-50
2024/03/08 06:40:00;;;;;;;19.60;12.23;;;;;;;;;;5011923;28;20038;-51
2024/03/08 06:42:28;;;;;;;13.95;10.75;;;;;;;;;;5011794;28;20041;-49
2024/03/08 06:44:56;;;;;;;17.92;13.30;;;;;;;;;;5010521;28;20084;-48
2024/03/08 06:47:25;;;;;;;18.00;13.13;;;;;;;;;;5013521;28;20101;-50
2024/03/08 06:49:52;;;;;;;15.30;11.10;;;;;;;;;;5015724;28;20381;-51
2024/03/08 06:52:18;;;;;;;19.88;12.75;;;;;;;;;;5015697;28;20033;-49
2024/03/08 06:54:44;;;;;;;21.77;11.73;;;;;;;;;;5015708;28;20077;-50
2024/03/08 06:57:11;;;;;;;15.13;11.13;;;;;;;;;;5015400;28;20265;-49
2024/03/08 06:59:37;;;;;;;17.88;12.18;;;;;;;;;;5014141;28;20276;-51
2024/03/08 07:02:04;;;;;;;27.73;12.23;;;;;;;;;;5015679;28;20076;-49
2024/03/08 07:04:31;;;;;;;21.83;12.18;;;;;;;;;;5014387;28;20117;-48
2024/03/08 07:06:57;;;;;;;20.88;12.57;;;;;;;;;;5015258;28;20041;-48
2024/03/08 07:09:24;;;;;;;16.90;11.30;;;;;;;;;;5015449;28;20058;-49
2024/03/08 07:11:54;;;;;;;17.17;10.75;;;;;;;;;;5015421;28;20065;-52
2024/03/08 07:14:24;;;;;;;14.38;10.77;;;;;;;;;;5014207;28;20034;-49
2024/03/08 07:16:53;;;;;;;18.25;11.32;;;;;;;;;;5015154;28;20029;-52
2024/03/08 07:19:21;;;;;;;16.65;10.48;;;;;;;;;;4997330;28;20057;-49
2024/03/08 07:21:47;;;;;;;21.45;10.30;;;;;;;;;;5010651;28;20503;-49
2024/03/08 07:26:51;;;;;;;16.73;11.00;;;;;;;;;;4994017;28;20117;-51
2024/03/08 07:29:18;;;;;;;13.65;10.05;;;;;;;;;;4977983;28;20034;-48
2024/03/08 07:31:56;;;;;;;19.27;11.80;;;;;;;;;;4995374;28;20022;-51
2024/03/08 07:34:22;;;;;;;17.80;11.30;;;;;;;;;;5012865;28;20044;-50
2024/03/08 07:36:50;;;;;;;15.03;10.03;;;;;;;;;;5014907;28;20030;-53
2024/03/08 07:39:17;;;;;;;15.35;10.38;;;;;;;;;;5014764;28;20805;-51
2024/03/08 07:41:43;;;;;;;14.18;8.88;;;;;;;;;;5014778;28;20029;-51
2024/03/08 07:44:10;;;;;;;12.82;10.07;;;;;;;;;;5014833;28;20030;-50
2024/03/08 07:46:36;;;;;;;16.05;10.75;;;;;;;;;;5013338;28;20034;-52
2024/03/08 07:49:03;;;;;;;16.30;10.27;;;;;;;;;;5014857;28;20052;-50
2024/03/08 07:51:30;;;;;;;13.25;9.45;;;;;;;;;;5007785;28;20038;-52
2024/03/08 07:53:57;;;;;;;13.75;10.18;;;;;;;;;;4994973;28;20042;-49
2024/03/08 07:56:23;;;;;;;18.15;10.35;;;;;;;;;;4994867;28;20515;-48
2024/03/08 07:58:50;;;;;;;16.38;9.63;;;;;;;;;;4993342;28;20091;-48
2024/03/08 08:01:16;;;;;;;10.90;9.00;;;;;;;;;;4995017;28;20032;-47
2024/03/08 08:03:43;;;;;;;21.00;10.02;;;;;;;;;;4994906;28;20076;-47
2024/03/08 08:06:09;;;;;;;14.30;10.10;;;;;;;;;;4994642;28;20022;-49
2024/03/08 08:08:36;;;;;;;11.07;8.55;;;;;;;;;;4994919;28;20026;-48
2024/03/08 08:11:02;;;;;;;8.48;7.35;;;;;;;;;;4994631;28;20065;-51
2024/03/08 08:13:32;;;;;;;11.33;6.60;;;;;;;;;;4994648;28;20034;-48
2024/03/08 08:15:58;;;;;;;11.45;6.32;;;;;;;;;;4993273;28;20034;-47
2024/03/08 08:18:25;;;;;;;10.50;5.90;;;;;;;;;;4993136;28;20042;-49
2024/03/08 08:20:54;;;;;;;12.05;7.28;;;;;;;;;;4994523;28;20512;-48
2024/03/08 08:23:21;;;;;;;11.80;7.18;;;;;;;;;;4994419;28;20374;-48
2024/03/08 08:25:50;;;;;;;7.68;5.78;;;;;;;;;;4994181;28;20045;-45
2024/03/08 08:28:20;;;;;;;8.70;6.43;;;;;;;;;;4993110;28;20026;-48
2024/03/08 08:30:46;;;;;;;10.15;7.07;;;;;;;;;;4993010;28;20121;-49
2024/03/08 08:33:13;;;;;;;9.85;6.50;;;;;;;;;;5005961;28;20520;-50
2024/03/08 08:35:39;;;;;;;7.88;6.03;;;;;;;;;;5013703;28;20080;-48
2024/03/08 08:38:07;;;;;;;8.53;6.60;;;;;;;;;;5013764;28;20026;-48
2024/03/08 08:40:34;;;;;;;8.43;6.80;;;;;;;;;;5013604;28;20053;-48
2024/03/08 08:43:04;;;;;;;9.65;6.45;;;;;;;;;;5013792;28;20535;-47
2024/03/08 08:45:33;;;;;;;9.10;6.57;;;;;;;;;;5012281;28;20026;-47
2024/03/08 08:47:59;;;;;;;8.52;6.32;;;;;;;;;;5013517;28;20037;-47
2024/03/08 08:50:28;;;;;;;8.35;6.32;;;;;;;;;;5013473;28;20034;-49
2024/03/08 08:52:55;;;;;;;11.27;7.20;;;;;;;;;;5013408;28;20038;-48
2024/03/08 08:55:25;;;;;;;14.60;9.30;;;;;;;;;;5013157;28;20062;-48
2024/03/08 08:57:51;;;;;;;12.70;7.65;;;;;;;;;;5013397;28;20034;-48
2024/03/08 09:00:19;;;;;;;10.93;7.90;;;;;;;;;;5013099;28;20448;-50
2024/03/08 09:02:46;;;;;;;13.27;9.60;;;;;;;;;;5012159;28;20033;-48
2024/03/08 09:05:16;;;;;;;10.40;9.20;;;;;;;;;;5011978;28;20030;-49
2024/03/08 09:07:46;;;;;;;17.08;7.30;;;;;;;;;;4996231;28;20030;-47
2024/03/08 09:10:14;;;;;;;9.57;8.13;;;;;;;;;;5011283;28;20034;-47
2024/03/08 09:12:40;;;;;;;9.35;7.63;;;;;;;;;;5013247;28;20036;-47
2024/03/08 09:15:13;;;;;;;8.68;7.07;;;;;;;;;;5013146;28;20112;-47
2024/03/08 09:17:40;;;;;;;9.70;7.03;;;;;;;;;;5011953;28;20546;-48
2024/03/08 09:20:08;;;;;;;10.32;6.18;;;;;;;;;;5012799;28;20064;-52
2024/03/08 09:22:35;;;;;;;9.60;6.45;;;;;;;;;;5013031;28;20392;-51
2024/03/08 09:25:01;;;;;;;9.60;6.55;;;;;;;;;;5012544;28;20025;-48
2024/03/08 09:27:28;;;;;;;7.85;5.97;;;;;;;;;;5012838;28;20480;-50
2024/03/08 09:29:55;;;;;;;7.60;6.55;;;;;;;;;;5012723;28;20042;-48
2024/03/08 09:32:22;;;;;;;;;;;;;;;;;;5013330;28;20099;-49
2024/03/08 09:34:48;;;;;;;10.88;6.68;;;;;;;;;;5012879;28;20016;-49
2024/03/08 09:37:15;;;;;;;9.77;6.83;;;;;;;;;;5012702;28;20030;-48
2024/03/08 09:39:41;;;;;;;11.38;6.85;;;;;;;;;;5012590;28;20061;-49
2024/03/08 09:42:07;;;;;;;7.95;6.30;;;;;;;;;;5012633;28;20042;-50
2024/03/08 09:44:34;;;;;;;10.33;6.30;;;;;;;;;;4995026;28;20083;-50
2024/03/08 09:47:04;;;;;;;9.77;6.72;;;;;;;;;;5012430;28;20026;-53
2024/03/08 09:49:30;;;;;;;9.68;6.45;;;;;;;;;;5012420;28;20465;-49
2024/03/08 09:51:56;;;;;;;8.65;6.50;;;;;;;;;;5012517;28;20491;-48
2024/03/08 09:54:24;;;;;;;9.87;7.67;;;;;;;;;;5011023;28;20038;-53
2024/03/08 09:56:51;;;;;;;8.82;7.18;;;;;;;;;;5012181;28;20026;-49
2024/03/08 10:01:51;;;;;;;9.88;6.82;;;;;;;;;;5010407;28;20681;-48
2024/03/08 10:04:18;;;;;;;11.38;6.68;;;;;;;;;;5011150;28;20037;-48
2024/03/08 10:06:45;;;;;;;11.98;7.03;;;;;;;;;;5012070;28;20030;-48
2024/03/08 10:09:13;;;;;;;12.65;7.60;;;;;;;;;;5010946;28;20033;-48
2024/03/08 10:11:40;;;;;;;10.70;7.83;;;;;;;;;;5012131;28;20034;-48
2024/03/08 10:14:08;;;;;;;10.07;7.47;;;;;;;;;;5010147;28;20616;-51
2024/03/08 10:16:35;;;;;;;9.52;6.80;;;;;;;;;;5011933;28;20408;-52
2024/03/08 10:19:01;;;;;;;10.07;7.15;;;;;;;;;;5011813;28;20128;-48
2024/03/08 10:21:28;;;;;;;10.35;7.47;;;;;;;;;;5012049;28;20038;-49
2024/03/08 10:23:54;;;;;;;8.30;6.97;;;;;;;;;;5012003;28;20030;-50
2024/03/08 10:26:21;;;;;;;9.80;6.27;;;;;;;;;;5010592;28;20030;-51
2024/03/08 10:28:52;;;;;;;8.60;7.03;;;;;;;;;;5010634;28;20292;-49
2024/03/08 10:31:19;;;;;;;8.52;6.97;;;;;;;;;;5011977;28;20068;-50
2024/03/08 10:33:45;;;;;;;;;;;;;;;;;;5011247;28;20034;-50
2024/03/08 10:36:14;;;;;;;9.77;6.72;;;;;;;;;;5011686;28;19909;-52
2024/03/08 10:38:41;;;;;;;9.98;6.88;;;;;;;;;;5010899;28;20037;-51
2024/03/08 10:41:09;;;;;;;;;;;;;;;;;;5009865;28;20097;-49
2024/03/08 10:43:44;;;;;;;9.65;7.38;;;;;;;;;;5011240;28;19913;-50
2024/03/08 10:46:13;;;;;;;10.52;7.43;;;;;;;;;;5011166;28;20388;-50
2024/03/08 10:48:44;;;;;;;11.23;7.75;;;;;;;;;;5010460;28;20030;-50
2024/03/08 10:51:12;;;;;;;11.02;7.18;;;;;;;;;;5010374;28;20065;-51
2024/03/08 10:53:41;;;;;;;13.27;7.18;;;;;;;;;;5010484;28;20093;-50
2024/03/08 10:56:09;;;;;;;13.40;7.30;;;;;;;;;;5010225;28;20210;-53
2024/03/08 10:58:36;;;;;;;9.68;7.80;;;;;;;;;;4993939;28;20041;-51
2024/03/08 11:01:03;;;;;;;10.38;7.95;;;;;;;;;;5011654;28;20022;-51
2024/03/08 11:03:44;;;;;;;10.35;6.88;;;;;;;;;;5011589;28;20185;-51
2024/03/08 11:06:14;;;;;;;15.38;8.68;;;;;;;;;;5011318;28;20227;-50
2024/03/08 11:08:41;;;;;;;8.55;6.80;;;;;;;;;;5011484;28;20029;-52
2024/03/08 11:11:27;;;;;;;8.20;6.53;;;;;;;;;;5011861;28;20075;-50
2024/03/08 11:13:54;;;;;;;8.65;7.18;;;;;;;;;;5011851;28;20698;-51
2024/03/08 11:16:23;;;;;;;7.93;6.15;;;;;;;;;;4999472;28;20038;-49
2024/03/08 11:18:50;;;;;;;10.13;6.57;;;;;;;;;;5021714;23;20395;-55
2024/03/08 11:21:18;;;;;;;14.13;9.07;;;;;;;;;;5009604;28;20053;-57
2024/03/08 11:23:44;;;;;;;14.30;10.70;;;;;;;;;;5010005;28;20032;-56
2024/03/08 11:26:20;;;;;;;11.97;9.30;;;;;;;;;;5008557;28;20029;-56
2024/03/08 11:28:47;;;;;;;10.20;7.43;;;;;;;;;;5010034;28;20105;-59
2024/03/08 11:31:14;;;;;;;9.15;7.72;;;;;;;;;;5009961;28;20025;-60
2024/03/08 11:33:44;;;;;;;14.88;10.48;;;;;;;;;;5010950;28;20084;-58
2024/03/08 11:36:16;;;;;;;11.20;8.55;;;;;;;;;;4998024;28;20173;-53
2024/03/08 11:38:49;;;;;;;11.13;8.70;;;;;;;;;;4993388;28;20129;-57
2024/03/08 11:41:25;;;;;;;13.02;7.80;;;;;;;;;;4992584;28;20072;-58
2024/03/08 11:44:07;;;;;;;13.00;8.88;;;;;;;;;;4998719;28;20030;-55
2024/03/08 11:46:33;;;;;;;10.65;7.55;;;;;;;;;;5002731;28;20047;-57
2024/03/08 11:49:00;;;;;;;10.70;7.05;;;;;;;;;;5005748;28;20041;-50
2024/03/08 11:51:27;;;;;;;10.32;6.80;;;;;;;;;;5010249;28;20045;-52
2024/03/08 11:53:53;;;;;;;10.23;7.88;;;;;;;;;;5011846;28;20038;-56
2024/03/08 11:56:23;;;;;;;9.02;6.93;;;;;;;;;;5008942;28;20037;-57
2024/03/08 11:59:00;;;;;;;11.60;7.40;;;;;;;;;;5002749;28;20153;-56
2024/03/08 12:01:43;;;;;;;12.68;7.15;;;;;;;;;;4999204;28;20478;-56
2024/03/08 12:04:09;;;;;;;;;;;;;;;;;;5001327;28;20033;-58
2024/03/08 12:06:40;;;;;;;11.68;7.10;;;;;;;;;;5001474;28;19917;-56
2024/03/08 12:09:13;;;;;;;7.63;6.82;;;;;;;;;;4999300;28;20043;-55
2024/03/08 12:11:39;;;;;;;12.13;7.72;;;;;;;;;;4998965;28;20073;-53
2024/03/08 12:14:07;;;;;;;8.32;7.05;;;;;;;;;;5009252;28;20487;-55
2024/03/08 12:16:33;;;;;;;;;;;;;;;;;;4995271;28;20038;-56
2024/03/08 12:19:00;;;;;;;9.73;6.75;;;;;;;;;;4999126;28;19913;-55
2024/03/08 12:21:29;;;;;;;9.10;7.40;;;;;;;;;;4996482;28;20062;-56
2024/03/08 12:24:04;;;;;;;10.48;7.10;;;;;;;;;;4992156;28;20033;-56
2024/03/08 12:26:32;;;;;;;8.55;6.50;;;;;;;;;;5012225;28;20034;-49
2024/03/08 12:29:20;;;;;;;7.88;6.43;;;;;;;;;;5011037;28;20412;-55
2024/03/08 12:31:53;;;;;;;8.88;5.95;;;;;;;;;;4998449;28;20035;-53
2024/03/08 12:34:19;;;;;;;7.55;5.68;;;;;;;;;;5010971;28;20724;-58
2024/03/08 12:36:47;;;;;;;8.98;5.95;;;;;;;;;;4992663;28;20084;-57
2024/03/08 12:39:15;;;;;;;7.80;6.75;;;;;;;;;;5007046;28;20041;-57
2024/03/08 12:41:43;;;;;;;7.97;6.50;;;;;;;;;;5005706;28;20622;-54
2024/03/08 12:44:11;;;;;;;;;;;;;;;;;;4997803;28;20446;-56
2024/03/08 12:46:40;;;;;;;8.95;6.25;;;;;;;;;;5004928;28;19921;-55
2024/03/08 12:49:10;;;;;;;8.90;6.75;;;;;;;;;;5010228;28;20193;-58
2024/03/08 12:51:38;;;;;;;26.08;7.75;;;;;;;;;;5010243;28;20120;-57
2024/03/08 12:54:07;;;;;;;9.57;6.28;;;;;;;;;;4996972;28;20497;-56
2024/03/08 12:56:35;;;;;;;10.80;6.88;;;;;;;;;;5010714;28;20514;-58
2024/03/08 12:59:02;;;;;;;11.40;5.88;;;;;;;;;;5011625;28;20464;-58
2024/03/08 13:01:29;;;;;;;9.05;6.82;;;;;;;;;;5000402;28;20123;-58
2024/03/08 13:03:56;;;;;;;8.45;6.85;;;;;;;;;;4992173;28;20030;-58
2024/03/08 13:06:24;;;;;;;9.70;6.27;;;;;;;;;;5007965;28;20049;-58
2024/03/08 13:08:54;;;;;;;10.25;6.70;;;;;;;;;;5010000;28;20030;-57
2024/03/08 13:11:21;;;;;;;10.32;6.45;;;;;;;;;;5010580;28;20034;-57
2024/03/08 13:13:48;;;;;;;9.73;6.70;;;;;;;;;;5007435;28;20061;-58
2024/03/08 13:16:18;;;;;;;8.95;6.63;;;;;;;;;;4993112;28;20030;-58
2024/03/08 13:18:46;;;;;;;10.07;6.95;;;;;;;;;;4991714;28;20038;-57
2024/03/08 13:21:14;;;;;;;9.95;7.68;;;;;;;;;;4991827;28;20508;-57
2024/03/08 13:23:45;;;;;;;8.38;6.82;;;;;;;;;;4990588;28;20046;-56
2024/03/08 13:26:15;;;;;;;11.48;8.45;;;;;;;;;;4996652;28;20095;-56
2024/03/08 13:28:46;;;;;;;8.60;6.75;;;;;;;;;;4992862;28;20149;-59
2024/03/08 13:31:14;;;;;;;9.30;6.70;;;;;;;;;;5000521;28;20447;-59
2024/03/08 13:33:46;;;;;;;8.45;6.38;;;;;;;;;;5010934;28;20104;-57
2024/03/08 13:36:15;;;;;;;9.38;6.75;;;;;;;;;;5007540;28;20060;-58
2024/03/08 13:38:47;;;;;;;8.30;6.95;;;;;;;;;;4992232;28;20034;-58
2024/03/08 13:41:20;;;;;;;8.15;6.60;;;;;;;;;;4991572;28;20404;-56
2024/03/08 13:43:50;;;;;;;10.75;7.22;;;;;;;;;;4997855;28;20034;-55
2024/03/08 13:46:16;;;;;;;20.45;15.30;;;;;;;;;;5000578;28;20512;-56
2024/03/08 13:48:43;;;;;;;10.95;7.43;;;;;;;;;;4998432;28;20041;-58
2024/03/08 13:51:12;;;;;;;9.65;7.05;;;;;;;;;;5011100;28;20037;-58
2024/03/08 13:53:38;;;;;;;10.90;7.78;;;;;;;;;;4998842;28;20041;-58
2024/03/08 13:56:05;;;;;;;10.43;6.70;;;;;;;;;;4998129;28;20026;-58
2024/03/08 13:58:32;;;;;;;12.82;8.82;;;;;;;;;;5009757;28;20038;-59
2024/03/08 14:00:58;;;;;;;15.13;9.35;;;;;;;;;;5009401;28;20101;-58
2024/03/08 14:03:24;;;;;;;9.65;7.60;;;;;;;;;;5009254;28;20111;-57
2024/03/08 14:05:51;;;;;;;9.95;7.10;;;;;;;;;;5009933;28;20087;-58
2024/03/08 14:08:17;;;;;;;11.03;6.97;;;;;;;;;;5010743;28;20018;-58
2024/03/08 14:10:46;;;;;;;12.30;8.50;;;;;;;;;;5010869;28;20033;-59
2024/03/08 14:13:15;;;;;;;7.00;5.82;;;;;;;;;;5009008;28;20032;-60
2024/03/08 14:15:42;;;;;;;8.85;7.38;;;;;;;;;;5008775;28;20057;-61
2024/03/08 14:18:08;;;;;;;8.98;7.60;;;;;;;;;;5008150;28;20052;-60
2024/03/08 14:20:34;;;;;;;11.37;8.53;;;;;;;;;;5010516;28;20072;-61
2024/03/08 14:23:01;;;;;;;15.20;11.18;;;;;;;;;;5009648;28;20333;-61
2024/03/08 14:25:29;;;;;;;12.07;8.57;;;;;;;;;;5005869;28;20030;-60
2024/03/08 14:28:02;;;;;;;10.30;7.70;;;;;;;;;;5009531;28;20022;-62
2024/03/08 14:30:35;;;;;;;11.60;8.50;;;;;;;;;;5008921;28;20026;-63
2024/03/08 14:33:03;;;;;;;9.82;7.25;;;;;;;;;;5011894;28;20051;-63
2024/03/08 14:35:29;;;;;;;11.20;8.10;;;;;;;;;;5011821;28;20034;-63